Vale, Oregon
Current Conditions -  °F | °C
As of 5:53 PM on Wednesday 26 Nov 2014 (Local Time) from KONO Reporting Station
Clear Clear  
Wind Chill: 46°   Ceiling: Unl
Heat Index: 46°   Visibility: 10mi
Dew Point: 40°   Wind: 3mph
Humidity: 79%   Direction: 350°N
Pressure: 30.23"   Gusts: NA
Location:  43.98°N, 117.24°W
Report Text: KONO 270053Z AUTO 35003KT 10SM CLR 08/04 A3023 RMK AO2 SLP251 T00780044
Loading
Personal Weather Stations






























Interactive Weather Map New forecast layout! Learn more

10-Day Weather Forecast

Advertisements
Track Severe Weather on mobile